createdAt,value
2017-12-04T00:02:00.876Z,98963.92
2017-12-04T00:04:29.142Z,98962.23
2017-12-04T00:06:57.409Z,98964.31
2017-12-04T00:09:25.695Z,98965.60
2017-12-04T00:11:53.959Z,98955.77
2017-12-04T00:14:22.221Z,98953.25
2017-12-04T00:16:50.497Z,98952.27
2017-12-04T00:19:19.521Z,98959.84
2017-12-04T00:21:47.795Z,98964.16
2017-12-04T00:24:16.066Z,98969.63
2017-12-04T00:26:44.326Z,98969.33
2017-12-04T00:29:12.592Z,98973.64
2017-12-04T00:31:40.867Z,98964.59
2017-12-04T00:34:09.903Z,98966.59
2017-12-04T00:36:38.167Z,98967.33
2017-12-04T00:39:06.430Z,98969.56
2017-12-04T00:41:34.698Z,98968.82
2017-12-04T00:44:02.966Z,98966.03
2017-12-04T00:46:32.003Z,98967.25
2017-12-04T00:49:00.266Z,98969.30
2017-12-04T00:51:28.538Z,98967.80
2017-12-04T00:53:56.803Z,98972.00
2017-12-04T00:56:25.078Z,98973.30
2017-12-04T00:58:53.346Z,98972.23
2017-12-04T01:01:21.619Z,98973.61
2017-12-04T01:03:49.879Z,98978.98
2017-12-04T01:06:18.902Z,98981.56
2017-12-04T01:08:47.166Z,98979.87
2017-12-04T01:11:15.432Z,98988.59
2017-12-04T01:13:44.469Z,98989.49
2017-12-04T01:16:12.742Z,98989.45
2017-12-04T01:18:41.004Z,98988.16
2017-12-04T01:21:09.267Z,98990.80
2017-12-04T01:23:37.545Z,98993.61
2017-12-04T01:26:05.808Z,98993.18
2017-12-04T01:28:34.843Z,98988.67
2017-12-04T01:31:03.103Z,98992.55
2017-12-04T01:33:31.374Z,98994.40
2017-12-04T01:35:59.644Z,99005.42
2017-12-04T01:38:27.933Z,99009.03
2017-12-04T01:40:56.197Z,99009.62
2017-12-04T01:43:24.452Z,99008.36
2017-12-04T01:45:53.485Z,99000.28
2017-12-04T01:48:21.745Z,99000.13
2017-12-04T01:50:50.017Z,98994.91
2017-12-04T01:53:18.291Z,98989.89
2017-12-04T01:55:46.560Z,98986.52
2017-12-04T01:58:14.818Z,98984.94
2017-12-04T02:00:43.862Z,98996.91
2017-12-04T02:03:12.125Z,98999.81
2017-12-04T02:05:40.394Z,99000.55
2017-12-04T02:08:08.658Z,99001.89
2017-12-04T02:10:36.935Z,99006.01
2017-12-04T02:13:05.216Z,98999.73
2017-12-04T02:15:33.486Z,98997.45
2017-12-04T02:18:01.758Z,98992.39
2017-12-04T02:20:30.047Z,99003.85
2017-12-04T02:22:58.322Z,99013.86
2017-12-04T02:25:26.587Z,98998.09
2017-12-04T02:27:54.855Z,98999.92
2017-12-04T02:30:26.040Z,98993.34
2017-12-04T02:32:54.319Z,98978.89
2017-12-04T02:35:22.584Z,98981.02
2017-12-04T02:37:50.852Z,98982.90
2017-12-04T02:40:19.108Z,98983.64
2017-12-04T02:42:47.375Z,98980.19
2017-12-04T02:45:16.400Z,98977.84
2017-12-04T02:47:44.662Z,98961.40
2017-12-04T02:50:12.924Z,98973.55
2017-12-04T02:52:41.189Z,98981.72
2017-12-04T02:55:10.219Z,98977.64
2017-12-04T02:57:38.486Z,98976.33
2017-12-04T03:00:06.760Z,98979.83
2017-12-04T03:02:35.035Z,98983.52
2017-12-04T03:05:03.290Z,98983.64
2017-12-04T03:07:32.323Z,98983.52
2017-12-04T03:10:00.604Z,98988.38
2017-12-04T03:12:28.863Z,98992.03
2017-12-04T03:14:57.135Z,98990.66
2017-12-04T03:17:25.406Z,98991.95
2017-12-04T03:19:53.675Z,98998.82
2017-12-04T03:22:21.945Z,98986.53
2017-12-04T03:24:50.198Z,98981.08
2017-12-04T03:27:19.236Z,98991.32
2017-12-04T03:29:47.498Z,98985.83
2017-12-04T03:32:15.756Z,98986.93
2017-12-04T03:34:44.779Z,98987.67
2017-12-04T03:37:13.042Z,98994.73
2017-12-04T03:39:41.298Z,98990.27
2017-12-04T03:42:10.332Z,98989.20
2017-12-04T03:44:38.616Z,99000.97
2017-12-04T03:47:06.880Z,99003.30
2017-12-04T03:49:35.137Z,99016.52
2017-12-04T03:52:03.410Z,99003.59
2017-12-04T03:54:31.683Z,99004.58
2017-12-04T03:56:59.947Z,99012.82
2017-12-04T03:59:28.978Z,99003.00
2017-12-04T04:01:57.248Z,99002.65
2017-12-04T04:04:25.511Z,99009.55
2017-12-04T04:06:53.785Z,99000.96
2017-12-04T04:09:22.057Z,98997.93
2017-12-04T04:11:50.319Z,99007.86
2017-12-04T04:14:19.346Z,99017.16
2017-12-04T04:16:47.605Z,99019.91
2017-12-04T04:19:15.875Z,99011.83
2017-12-04T04:21:44.131Z,99010.92
2017-12-04T04:24:13.169Z,99010.13
2017-12-04T04:26:41.430Z,99013.27
2017-12-04T04:29:09.691Z,99016.05
2017-12-04T04:31:37.951Z,99019.55
2017-12-04T04:34:06.983Z,99019.20
2017-12-04T04:36:35.241Z,99019.63
2017-12-04T04:39:03.514Z,99020.37
2017-12-04T04:41:31.775Z,99019.27
2017-12-04T04:44:00.798Z,99019.94
2017-12-04T04:46:29.071Z,99029.94
2017-12-04T04:48:57.337Z,99027.90
2017-12-04T04:51:25.591Z,99039.87
2017-12-04T04:53:54.618Z,99038.17
2017-12-04T04:56:22.881Z,99038.97
2017-12-04T04:58:51.141Z,99045.98
2017-12-04T05:01:20.158Z,99029.96
2017-12-04T05:03:48.414Z,99033.30
2017-12-04T05:06:17.439Z,99036.12
2017-12-04T05:08:45.702Z,99034.03
2017-12-04T05:11:13.947Z,99040.72
2017-12-04T05:13:42.975Z,99046.60
2017-12-04T05:16:11.227Z,99047.84
2017-12-04T05:18:40.256Z,99040.43
2017-12-04T05:21:08.510Z,99037.38
2017-12-04T05:23:36.774Z,99046.25
2017-12-04T05:26:05.800Z,99050.60
2017-12-04T05:28:34.054Z,99057.67
2017-12-04T05:31:02.315Z,99044.12
2017-12-04T05:33:31.342Z,99057.55
2017-12-04T05:35:59.603Z,99051.73
2017-12-04T05:38:27.865Z,99058.16
2017-12-04T05:40:56.886Z,99056.95
2017-12-04T05:43:25.145Z,99057.34
2017-12-04T05:45:53.406Z,99059.81
2017-12-04T05:48:22.429Z,99051.03
2017-12-04T05:50:50.695Z,99048.54
2017-12-04T05:53:18.961Z,99054.00
2017-12-04T05:55:47.226Z,99052.70
2017-12-04T05:58:16.255Z,99053.27
2017-12-04T06:00:44.502Z,99050.95
2017-12-04T06:03:12.762Z,99051.02
2017-12-04T06:05:41.778Z,99061.36
2017-12-04T06:08:10.046Z,99054.13
2017-12-04T06:10:38.303Z,99053.70
2017-12-04T06:13:07.331Z,99069.44
2017-12-04T06:15:35.578Z,99066.85
2017-12-04T06:18:04.606Z,99060.49
2017-12-04T06:20:32.869Z,99063.66
2017-12-04T06:23:01.139Z,99079.58
2017-12-04T06:25:29.394Z,99068.77
2017-12-04T06:27:58.400Z,99070.92
2017-12-04T06:30:26.662Z,99074.89
2017-12-04T06:32:55.681Z,99087.21
2017-12-04T06:35:23.945Z,99089.45
2017-12-04T06:37:52.199Z,99089.42
2017-12-04T06:40:20.457Z,99097.78
2017-12-04T06:42:48.718Z,99096.22
2017-12-04T06:45:16.974Z,99101.69
2017-12-04T06:47:45.233Z,99104.70
2017-12-04T06:50:13.498Z,99106.95
2017-12-04T06:52:42.518Z,99103.13
2017-12-04T06:55:10.769Z,99096.69
2017-12-04T06:57:39.032Z,99097.42
2017-12-04T07:00:08.058Z,99103.37
2017-12-04T07:02:36.306Z,99112.48
2017-12-04T07:05:05.351Z,99119.03
2017-12-04T07:07:33.604Z,99109.05
2017-12-04T07:10:01.853Z,99114.80
2017-12-04T07:12:30.885Z,99109.72
2017-12-04T07:14:59.136Z,99116.75
2017-12-04T07:17:27.390Z,99114.67
2017-12-04T07:19:56.406Z,99115.57
2017-12-04T07:22:24.668Z,99116.70
2017-12-04T07:24:53.675Z,99111.33
2017-12-04T07:27:21.943Z,99105.29
2017-12-04T07:29:50.201Z,99098.46
2017-12-04T07:32:19.225Z,99103.28
2017-12-04T07:34:47.478Z,99104.50
2017-12-04T07:37:16.498Z,99109.53
2017-12-04T07:39:44.741Z,99118.58
2017-12-04T07:42:13.791Z,99116.44
2017-12-04T07:44:42.038Z,99118.64
2017-12-04T07:47:10.290Z,99127.69
2017-12-04T07:49:39.319Z,99130.16
2017-12-04T07:52:07.573Z,99137.30
2017-12-04T07:54:35.833Z,99135.91
2017-12-04T07:57:04.851Z,99146.39
2017-12-04T07:59:33.113Z,99148.54
2017-12-04T08:02:01.365Z,99152.84
2017-12-04T08:04:30.472Z,99159.86
2017-12-04T08:06:59.484Z,99171.93
2017-12-04T08:09:27.738Z,99168.59
2017-12-04T08:11:56.755Z,99157.67
2017-12-04T08:14:25.032Z,99157.11
2017-12-04T08:16:53.274Z,99153.30
2017-12-04T08:19:22.296Z,99165.56
2017-12-04T08:21:50.557Z,99157.34
2017-12-04T08:24:18.818Z,99150.08
2017-12-04T08:26:47.839Z,99154.75
2017-12-04T08:29:16.097Z,99163.19
2017-12-04T08:31:45.109Z,99160.45
2017-12-04T08:34:13.373Z,99161.06
2017-12-04T08:36:41.618Z,99166.64
2017-12-04T08:39:09.890Z,99162.87
2017-12-04T08:41:38.138Z,99172.10
2017-12-04T08:44:06.405Z,99172.88
2017-12-04T08:46:34.659Z,99171.83
2017-12-04T08:49:02.922Z,99173.06
2017-12-04T08:51:31.185Z,99177.13
2017-12-04T08:54:00.214Z,99171.92
2017-12-04T08:56:28.502Z,99189.64
2017-12-04T08:58:56.783Z,99189.14
2017-12-04T09:01:25.066Z,99201.89
2017-12-04T09:03:53.455Z,99201.03
2017-12-04T09:06:21.788Z,99213.77
2017-12-04T09:08:50.136Z,99221.05
2017-12-04T09:11:18.437Z,99208.30
2017-12-04T09:13:46.743Z,99214.39
2017-12-04T09:16:15.066Z,99209.46
2017-12-04T09:18:44.167Z,99217.61
2017-12-04T09:21:13.241Z,99208.48
2017-12-04T09:23:41.538Z,99199.28
2017-12-04T09:26:10.622Z,99203.00
2017-12-04T09:28:38.969Z,99197.66
2017-12-04T09:31:07.302Z,99203.16
2017-12-04T09:33:35.602Z,99187.90
2017-12-04T09:36:03.922Z,99194.28
2017-12-04T09:38:32.245Z,99198.87
2017-12-04T09:41:00.558Z,99214.09
2017-12-04T09:43:28.868Z,99223.49
2017-12-04T09:45:57.938Z,99227.87
2017-12-04T09:48:26.242Z,99234.98
2017-12-04T09:50:55.318Z,99234.90
2017-12-04T09:53:23.620Z,99235.38
2017-12-04T09:55:52.704Z,99222.72
2017-12-04T09:58:21.034Z,99243.23
2017-12-04T10:00:49.370Z,99247.60
2017-12-04T10:03:17.686Z,99228.55
2017-12-04T10:05:45.988Z,99226.32
2017-12-04T10:08:14.310Z,99221.45
2017-12-04T10:10:42.617Z,99218.22
2017-12-04T10:13:10.930Z,99219.27
2017-12-04T10:15:39.265Z,99222.08
2017-12-04T10:18:07.544Z,99218.73
2017-12-04T10:20:35.900Z,99220.36
2017-12-04T10:23:04.214Z,99218.53
2017-12-04T10:25:32.530Z,99218.09
2017-12-04T10:28:01.583Z,99208.77
2017-12-04T10:30:29.868Z,99208.04
2017-12-04T10:32:58.192Z,99213.16
2017-12-04T10:35:27.264Z,99223.45
2017-12-04T10:37:55.554Z,99199.67
2017-12-04T10:40:24.643Z,99208.09
2017-12-04T10:42:53.713Z,99211.06
2017-12-04T10:45:22.007Z,99210.78
2017-12-04T10:47:50.327Z,99195.29
2017-12-04T10:50:18.643Z,99189.53
2017-12-04T10:52:46.995Z,99186.36
2017-12-04T10:55:15.280Z,99188.59
2017-12-04T10:57:43.574Z,99192.27
2017-12-04T11:00:11.902Z,99199.25
2017-12-04T11:02:40.209Z,99209.44
2017-12-04T11:05:08.497Z,99219.97
2017-12-04T11:07:36.818Z,99216.99
2017-12-04T11:10:05.905Z,99215.59
2017-12-04T11:12:34.990Z,99212.13
2017-12-04T11:15:03.274Z,99221.73
2017-12-04T11:17:32.325Z,99216.09
2017-12-04T11:20:00.624Z,99204.33
2017-12-04T11:22:28.899Z,99204.67
2017-12-04T11:24:57.216Z,99199.57
2017-12-04T11:27:25.518Z,99189.45
2017-12-04T11:29:53.793Z,99182.05
2017-12-04T11:32:22.066Z,99212.09
2017-12-04T11:34:50.352Z,99224.19
2017-12-04T11:37:18.628Z,99224.37
2017-12-04T11:39:46.916Z,99232.75
2017-12-04T11:42:15.199Z,99221.59
2017-12-04T11:44:43.472Z,99224.58
2017-12-04T11:47:11.758Z,99220.22
2017-12-04T11:49:40.036Z,99222.09
2017-12-04T11:52:08.316Z,99216.41
2017-12-04T11:54:36.645Z,99209.83
2017-12-04T11:57:04.950Z,99197.84
2017-12-04T11:59:33.258Z,99197.48
2017-12-04T12:02:01.573Z,99173.05
2017-12-04T12:04:29.885Z,99185.39
2017-12-04T12:06:58.271Z,99200.61
2017-12-04T12:09:26.551Z,99215.87
2017-12-04T12:11:54.878Z,99231.72
2017-12-04T12:14:23.190Z,99238.16
2017-12-04T12:16:51.521Z,99238.98
2017-12-04T12:19:19.828Z,99238.70
2017-12-04T12:21:48.120Z,99243.31
2017-12-04T12:24:16.427Z,99233.27
2017-12-04T12:26:44.704Z,99230.52
2017-12-04T12:29:12.985Z,99233.16
2017-12-04T12:31:42.076Z,99225.16
2017-12-04T12:34:11.150Z,99225.77
2017-12-04T12:36:39.420Z,99232.36
2017-12-04T12:39:07.683Z,99234.84
2017-12-04T12:41:35.968Z,99236.50
2017-12-04T12:44:04.244Z,99235.09
2017-12-04T12:46:32.539Z,99228.19
2017-12-04T12:49:00.824Z,99223.04
2017-12-04T12:51:29.884Z,99221.84
2017-12-04T12:53:58.195Z,99217.56
2017-12-04T12:56:26.500Z,99221.88
2017-12-04T12:58:54.822Z,99226.17
2017-12-04T13:01:23.136Z,99216.13
2017-12-04T13:03:52.201Z,99221.45
2017-12-04T13:06:20.515Z,99228.84
2017-12-04T13:08:48.841Z,99228.55
2017-12-04T13:11:17.158Z,99219.91
2017-12-04T13:13:46.195Z,99229.41
2017-12-04T13:16:14.529Z,99234.77
2017-12-04T13:18:43.607Z,99235.14
2017-12-04T13:21:11.918Z,99232.36
2017-12-04T13:23:40.267Z,99234.73
2017-12-04T13:26:09.366Z,99235.92
2017-12-04T13:28:38.454Z,99237.01
2017-12-04T13:31:06.804Z,99220.48
2017-12-04T13:33:52.894Z,99219.25
2017-12-04T13:39:22.198Z,99218.90
2017-12-04T13:41:50.449Z,99220.41
2017-12-04T13:44:18.690Z,99206.80
2017-12-04T13:46:46.948Z,99207.41
2017-12-04T13:49:15.203Z,99226.75
2017-12-04T13:51:43.475Z,99243.12
2017-12-04T13:54:11.750Z,99226.52
2017-12-04T13:56:40.756Z,99233.48
2017-12-04T13:59:09.827Z,99233.66
2017-12-04T14:01:38.104Z,99236.36
2017-12-04T14:04:06.378Z,99239.48
2017-12-04T14:06:34.664Z,99237.00
2017-12-04T14:09:02.958Z,99246.04
2017-12-04T14:11:31.229Z,99244.86
2017-12-04T14:13:59.520Z,99260.84
2017-12-04T14:16:27.792Z,99255.98
2017-12-04T14:18:56.068Z,99254.11
2017-12-04T14:21:24.344Z,99245.21
2017-12-04T14:23:52.621Z,99255.55
2017-12-04T14:26:20.892Z,99254.43
2017-12-04T14:28:49.180Z,99245.21
2017-12-04T14:31:17.472Z,99254.47
2017-12-04T14:33:45.792Z,99254.83
2017-12-04T14:36:14.055Z,99251.98
2017-12-04T14:38:42.350Z,99267.17
2017-12-04T14:41:10.612Z,99254.22
2017-12-04T14:43:38.876Z,99259.61
2017-12-04T14:46:07.146Z,99263.47
2017-12-04T14:48:36.221Z,99269.73
2017-12-04T14:51:04.492Z,99275.89
2017-12-04T14:53:32.797Z,99277.27
2017-12-04T14:56:01.846Z,99271.24
2017-12-04T14:58:30.112Z,99271.72
2017-12-04T15:00:58.387Z,99269.55
2017-12-04T15:03:26.650Z,99280.78
2017-12-04T15:05:54.970Z,99269.69
2017-12-04T15:08:23.245Z,99279.99
2017-12-04T15:10:51.535Z,99290.26
2017-12-04T15:13:20.584Z,99291.23
2017-12-04T15:15:48.873Z,99292.20
2017-12-04T15:18:17.135Z,99295.95
2017-12-04T15:20:45.425Z,99296.20
2017-12-04T15:23:13.710Z,99293.60
2017-12-04T15:25:42.029Z,99297.23
2017-12-04T15:28:11.074Z,99305.31
2017-12-04T15:30:39.362Z,99300.80
2017-12-04T15:33:07.645Z,99302.31
2017-12-04T15:35:35.936Z,99303.39
2017-12-04T15:38:04.975Z,99302.53
2017-12-04T15:40:33.248Z,99311.24
2017-12-04T15:43:01.551Z,99320.47
2017-12-04T15:45:29.833Z,99319.82
2017-12-04T15:47:58.145Z,99312.00
2017-12-04T15:50:27.218Z,99309.01
2017-12-04T15:52:56.331Z,99306.66
2017-12-04T15:55:25.392Z,99313.25
2017-12-04T15:57:53.694Z,99332.61
2017-12-04T16:00:22.754Z,99334.52
2017-12-04T16:02:51.841Z,99343.63
2017-12-04T16:05:20.125Z,99340.64
2017-12-04T16:07:48.449Z,99334.84
2017-12-04T16:10:17.512Z,99341.69
2017-12-04T16:12:45.827Z,99336.64
2017-12-04T16:15:14.129Z,99346.33
2017-12-04T16:17:43.227Z,99348.42
2017-12-04T16:20:11.533Z,99347.42
2017-12-04T16:22:39.870Z,99342.41
2017-12-04T16:25:08.171Z,99333.28
2017-12-04T16:27:36.502Z,99348.67
2017-12-04T16:30:04.819Z,99340.95
2017-12-04T16:32:33.150Z,99355.44
2017-12-04T16:35:02.245Z,99356.63
2017-12-04T16:37:31.325Z,99357.83
2017-12-04T16:39:59.623Z,99363.27
2017-12-04T16:42:27.948Z,99360.53
2017-12-04T16:44:56.265Z,99361.49
2017-12-04T16:47:24.574Z,99363.41
2017-12-04T16:49:52.887Z,99370.91
2017-12-04T16:52:21.254Z,99369.72
2017-12-04T16:54:49.555Z,99377.61
2017-12-04T16:57:17.874Z,99354.79
2017-12-04T16:59:46.219Z,99373.11
2017-12-04T17:02:14.534Z,99374.11
2017-12-04T17:04:42.858Z,99370.98
2017-12-04T17:07:11.173Z,99382.83
2017-12-04T17:09:39.501Z,99387.59
2017-12-04T17:12:07.800Z,99396.31
2017-12-04T17:14:36.928Z,99386.84
2017-12-04T17:17:05.262Z,99392.60
2017-12-04T17:19:33.581Z,99391.05
2017-12-04T17:22:01.891Z,99405.25
2017-12-04T17:24:30.235Z,99400.20
2017-12-04T17:26:58.548Z,99400.71
2017-12-04T17:29:26.878Z,99398.30
2017-12-04T17:31:55.185Z,99418.02
2017-12-04T17:34:23.522Z,99417.51
2017-12-04T17:36:51.830Z,99419.17
2017-12-04T17:39:20.101Z,99425.11
2017-12-04T17:41:48.383Z,99427.85
2017-12-04T17:44:16.686Z,99422.84
2017-12-04T17:46:44.984Z,99427.09
2017-12-04T17:49:13.281Z,99424.28
2017-12-04T17:51:42.317Z,99435.81
2017-12-04T17:54:10.661Z,99424.14
2017-12-04T17:56:38.994Z,99442.34
2017-12-04T17:59:07.317Z,99451.20
2017-12-04T18:01:35.642Z,99453.44
2017-12-04T18:04:03.953Z,99458.92
2017-12-04T18:06:32.273Z,99457.16
2017-12-04T18:09:00.587Z,99461.84
2017-12-04T18:11:28.907Z,99472.90
2017-12-04T18:13:57.207Z,99469.23
2017-12-04T18:16:25.529Z,99473.98
2017-12-04T18:18:53.832Z,99480.26
2017-12-04T18:21:22.162Z,99475.50
2017-12-04T18:23:50.470Z,99474.42
2017-12-04T18:26:19.555Z,99487.80
2017-12-04T18:28:47.855Z,99490.06
2017-12-04T18:31:16.946Z,99483.55
2017-12-04T18:33:46.016Z,99492.77
2017-12-04T18:36:14.351Z,99491.91
2017-12-04T18:38:42.670Z,99501.78
2017-12-04T18:41:10.972Z,99512.17
2017-12-04T18:43:40.054Z,99501.17
2017-12-04T18:46:09.104Z,99505.53
2017-12-04T18:48:37.432Z,99501.61
2017-12-04T18:51:05.734Z,99505.47
2017-12-04T18:53:34.063Z,99504.64
2017-12-04T18:56:02.376Z,99507.92
2017-12-04T18:58:30.684Z,99500.64
2017-12-04T19:00:58.979Z,99503.77
2017-12-04T19:03:27.288Z,99509.64
2017-12-04T19:05:55.610Z,99510.73
2017-12-04T19:08:23.932Z,99516.39
2017-12-04T19:10:52.250Z,99504.52
2017-12-04T19:13:20.586Z,99503.66
2017-12-04T19:15:48.885Z,99517.25
2017-12-04T19:18:17.196Z,99526.59
2017-12-04T19:20:45.511Z,99515.20
2017-12-04T19:23:13.808Z,99525.18
2017-12-04T19:25:42.128Z,99518.91
2017-12-04T19:28:10.425Z,99519.48
2017-12-04T19:30:38.720Z,99522.80
2017-12-04T19:33:07.809Z,99529.55
2017-12-04T19:35:36.134Z,99533.22
2017-12-04T19:38:04.438Z,99539.23
2017-12-04T19:40:32.780Z,99543.03
2017-12-04T19:43:01.111Z,99543.99
2017-12-04T19:45:29.437Z,99546.77
2017-12-04T19:47:57.763Z,99551.05
2017-12-04T19:50:26.081Z,99556.16
2017-12-04T19:52:54.402Z,99557.20
2017-12-04T19:55:22.725Z,99569.20
2017-12-04T19:57:51.037Z,99569.34
2017-12-04T20:00:21.029Z,99560.30
2017-12-04T20:02:49.360Z,99565.72
2017-12-04T20:05:17.681Z,99569.45
2017-12-04T20:07:46.002Z,99560.11
2017-12-04T20:10:14.366Z,99564.40
2017-12-04T20:12:42.714Z,99562.16
2017-12-04T20:15:11.024Z,99566.27
2017-12-04T20:17:39.330Z,99565.33
2017-12-04T20:20:07.641Z,99572.22
2017-12-04T20:22:35.995Z,99561.95
2017-12-04T20:25:05.086Z,99566.27
2017-12-04T20:27:34.201Z,99559.64
2017-12-04T20:30:03.287Z,99556.25
2017-12-04T20:32:32.372Z,99557.91
2017-12-04T20:35:00.707Z,99555.84
2017-12-04T20:37:29.034Z,99559.13
2017-12-04T20:39:58.119Z,99560.42
2017-12-04T20:42:26.378Z,99575.28
2017-12-04T20:44:54.797Z,99572.41
2017-12-04T20:47:23.906Z,99576.89
2017-12-04T20:49:52.241Z,99583.33
2017-12-04T20:52:21.522Z,99583.61
2017-12-04T21:09:01.011Z,99595.42
2017-12-04T21:11:47.304Z,99598.19
2017-12-04T21:14:33.483Z,99597.73
2017-12-04T21:17:20.345Z,99607.84
2017-12-04T21:20:03.758Z,99603.02
2017-12-04T21:22:32.109Z,99607.56
2017-12-04T21:25:02.272Z,99614.86
2017-12-04T21:27:40.309Z,99613.20
2017-12-04T21:30:09.458Z,99600.16
2017-12-04T21:32:37.765Z,99607.25
2017-12-04T21:35:06.137Z,99602.78
2017-12-04T21:37:34.398Z,99609.69
2017-12-04T21:40:02.660Z,99614.63
2017-12-04T21:42:30.938Z,99615.23
2017-12-04T21:45:00.005Z,99629.28
2017-12-04T21:47:29.087Z,99632.52
2017-12-04T21:49:57.446Z,99633.61
2017-12-04T21:52:25.770Z,99625.36
2017-12-04T21:54:54.090Z,99624.34
2017-12-04T21:57:22.394Z,99632.63
2017-12-04T21:59:50.709Z,99641.63
2017-12-04T22:02:19.002Z,99648.00
2017-12-04T22:04:47.304Z,99648.91
2017-12-04T22:07:15.674Z,99639.47
2017-12-04T22:09:44.012Z,99649.42
2017-12-04T22:12:12.346Z,99643.66
2017-12-04T22:14:40.665Z,99647.16
2017-12-04T22:17:09.030Z,99650.08
2017-12-04T22:19:38.346Z,99664.75
2017-12-04T22:22:07.745Z,99660.61
2017-12-04T22:24:36.100Z,99658.02
2017-12-04T22:27:05.199Z,99664.63
2017-12-04T22:29:34.285Z,99648.14
2017-12-04T22:32:03.390Z,99672.78
2017-12-04T22:34:31.734Z,99660.48
2017-12-04T22:37:00.107Z,99660.06
2017-12-04T22:39:28.434Z,99656.59
2017-12-04T22:41:56.809Z,99674.62
2017-12-04T22:44:25.169Z,99662.04
2017-12-04T22:46:54.260Z,99660.89
2017-12-04T22:49:22.658Z,99661.23
2017-12-04T22:51:51.767Z,99666.16
2017-12-04T22:54:20.103Z,99655.65
2017-12-04T22:56:49.200Z,99670.05
2017-12-04T22:59:17.562Z,99670.91
2017-12-04T23:01:45.893Z,99673.23
2017-12-04T23:04:14.226Z,99677.22
2017-12-04T23:06:42.606Z,99696.11
2017-12-04T23:09:10.942Z,99678.84
2017-12-04T23:11:39.286Z,99682.59
2017-12-04T23:14:08.410Z,99665.13
2017-12-04T23:16:36.818Z,99670.64
2017-12-04T23:19:05.202Z,99661.33
2017-12-04T23:21:33.605Z,99654.78
2017-12-04T23:24:01.888Z,99652.92
2017-12-04T23:26:30.987Z,99656.58
2017-12-04T23:28:59.332Z,99655.45
2017-12-04T23:31:27.697Z,99666.71
2017-12-04T23:33:56.028Z,99661.00
2017-12-04T23:36:24.447Z,99662.02
2017-12-04T23:38:52.857Z,99658.59
2017-12-04T23:41:21.214Z,99664.51
2017-12-04T23:43:50.284Z,99663.47
2017-12-04T23:46:19.456Z,99668.05
2017-12-04T23:48:47.783Z,99673.85
2017-12-04T23:51:16.128Z,99675.42
2017-12-04T23:53:44.486Z,99675.53
2017-12-04T23:56:13.564Z,99682.95
2017-12-04T23:58:41.941Z,99680.66
